<?xml version="1.0" encoding="UTF-8" standalone="no" ?>
<gpx xmlns="http://www.topografix.com/GPX/1/1" xmlns:xsi="http://www.w3.org/2001/XMLSchema-instance" xsi:schemaLocation="http://www.topografix.com/GPX/1/1 http://www.topografix.com/GPX/1/1/gpx.xsd" version="1.1" creator="VisuGPX - https://www.visugpx.com">
  <metadata>
    <name>LESSEVILLE</name>
    <desc><![CDATA[FAIT]]></desc>
  </metadata>
  <trk>
    <name><![CDATA[LESSEVILLE-12467008]]></name>
    <trkseg>
      <trkpt lat="49.03489" lon="1.86469">
        <ele>38</ele>
        <time>2023-01-10T08:13:22Z</time>
      </trkpt>
      <trkpt lat="49.03488" lon="1.86488">
        <ele>38</ele>
        <time>2023-01-10T08:13:39Z</time>
      </trkpt>
      <trkpt lat="49.03488" lon="1.86508">
        <ele>38</ele>
        <time>2023-01-10T08:13:56Z</time>
      </trkpt>
      <trkpt lat="49.03499" lon="1.8654">
        <ele>39</ele>
        <time>2023-01-10T08:14:28Z</time>
      </trkpt>
      <trkpt lat="49.03528" lon="1.86603">
        <ele>40</ele>
        <time>2023-01-10T08:15:35Z</time>
      </trkpt>
      <trkpt lat="49.03544" lon="1.86628">
        <ele>40</ele>
        <time>2023-01-10T08:16:06Z</time>
      </trkpt>
      <trkpt lat="49.0355" lon="1.86643">
        <ele>40</ele>
        <time>2023-01-10T08:16:21Z</time>
      </trkpt>
      <trkpt lat="49.03571" lon="1.8664">
        <ele>40</ele>
        <time>2023-01-10T08:16:49Z</time>
      </trkpt>
      <trkpt lat="49.03584" lon="1.86642">
        <ele>41</ele>
        <time>2023-01-10T08:17:07Z</time>
      </trkpt>
      <trkpt lat="49.03615" lon="1.86656">
        <ele>43</ele>
        <time>2023-01-10T08:17:50Z</time>
      </trkpt>
      <trkpt lat="49.03646" lon="1.8667">
        <ele>45</ele>
        <time>2023-01-10T08:18:33Z</time>
      </trkpt>
      <trkpt lat="49.03677" lon="1.86683">
        <ele>47</ele>
        <time>2023-01-10T08:19:16Z</time>
      </trkpt>
      <trkpt lat="49.03696" lon="1.86691">
        <ele>48</ele>
        <time>2023-01-10T08:19:42Z</time>
      </trkpt>
      <trkpt lat="49.037" lon="1.86675">
        <ele>50</ele>
        <time>2023-01-10T08:19:57Z</time>
      </trkpt>
      <trkpt lat="49.03707" lon="1.8665">
        <ele>52</ele>
        <time>2023-01-10T08:20:21Z</time>
      </trkpt>
      <trkpt lat="49.03703" lon="1.86633">
        <ele>52</ele>
        <time>2023-01-10T08:20:37Z</time>
      </trkpt>
      <trkpt lat="49.03699" lon="1.86611">
        <ele>53</ele>
        <time>2023-01-10T08:20:57Z</time>
      </trkpt>
      <trkpt lat="49.03721" lon="1.86577">
        <ele>58</ele>
        <time>2023-01-10T08:21:38Z</time>
      </trkpt>
      <trkpt lat="49.03741" lon="1.86544">
        <ele>62</ele>
        <time>2023-01-10T08:22:18Z</time>
      </trkpt>
      <trkpt lat="49.03746" lon="1.86529">
        <ele>64</ele>
        <time>2023-01-10T08:22:33Z</time>
      </trkpt>
      <trkpt lat="49.03751" lon="1.86505">
        <ele>66</ele>
        <time>2023-01-10T08:22:55Z</time>
      </trkpt>
      <trkpt lat="49.03753" lon="1.86478">
        <ele>68</ele>
        <time>2023-01-10T08:23:18Z</time>
      </trkpt>
      <trkpt lat="49.03753" lon="1.86467">
        <ele>69</ele>
        <time>2023-01-10T08:23:28Z</time>
      </trkpt>
      <trkpt lat="49.03761" lon="1.86449">
        <ele>71</ele>
        <time>2023-01-10T08:23:47Z</time>
      </trkpt>
      <trkpt lat="49.03785" lon="1.86415">
        <ele>75</ele>
        <time>2023-01-10T08:24:31Z</time>
      </trkpt>
      <trkpt lat="49.03808" lon="1.8638">
        <ele>80</ele>
        <time>2023-01-10T08:25:14Z</time>
      </trkpt>
      <trkpt lat="49.03831" lon="1.86345">
        <ele>84</ele>
        <time>2023-01-10T08:25:57Z</time>
      </trkpt>
      <trkpt lat="49.03844" lon="1.86327">
        <ele>85</ele>
        <time>2023-01-10T08:26:21Z</time>
      </trkpt>
      <trkpt lat="49.03851" lon="1.86322">
        <ele>86</ele>
        <time>2023-01-10T08:26:31Z</time>
      </trkpt>
      <trkpt lat="49.03878" lon="1.86315">
        <ele>87</ele>
        <time>2023-01-10T08:27:08Z</time>
      </trkpt>
      <trkpt lat="49.03906" lon="1.86302">
        <ele>87</ele>
        <time>2023-01-10T08:27:47Z</time>
      </trkpt>
      <trkpt lat="49.03934" lon="1.86286">
        <ele>88</ele>
        <time>2023-01-10T08:28:27Z</time>
      </trkpt>
      <trkpt lat="49.03961" lon="1.86271">
        <ele>90</ele>
        <time>2023-01-10T08:29:05Z</time>
      </trkpt>
      <trkpt lat="49.03981" lon="1.86256">
        <ele>91</ele>
        <time>2023-01-10T08:29:35Z</time>
      </trkpt>
      <trkpt lat="49.03997" lon="1.8624">
        <ele>91</ele>
        <time>2023-01-10T08:30:00Z</time>
      </trkpt>
      <trkpt lat="49.04019" lon="1.86211">
        <ele>91</ele>
        <time>2023-01-10T08:30:39Z</time>
      </trkpt>
      <trkpt lat="49.04042" lon="1.86182">
        <ele>92</ele>
        <time>2023-01-10T08:31:19Z</time>
      </trkpt>
      <trkpt lat="49.04065" lon="1.86153">
        <ele>93</ele>
        <time>2023-01-10T08:31:59Z</time>
      </trkpt>
      <trkpt lat="49.04088" lon="1.86124">
        <ele>94</ele>
        <time>2023-01-10T08:32:38Z</time>
      </trkpt>
      <trkpt lat="49.04105" lon="1.86103">
        <ele>94</ele>
        <time>2023-01-10T08:33:08Z</time>
      </trkpt>
      <trkpt lat="49.04119" lon="1.8608">
        <ele>93</ele>
        <time>2023-01-10T08:33:35Z</time>
      </trkpt>
      <trkpt lat="49.04131" lon="1.86052">
        <ele>93</ele>
        <time>2023-01-10T08:34:04Z</time>
      </trkpt>
      <trkpt lat="49.0414" lon="1.86023">
        <ele>92</ele>
        <time>2023-01-10T08:34:32Z</time>
      </trkpt>
      <trkpt lat="49.04149" lon="1.8598">
        <ele>92</ele>
        <time>2023-01-10T08:35:12Z</time>
      </trkpt>
      <trkpt lat="49.04155" lon="1.8593">
        <ele>91</ele>
        <time>2023-01-10T08:35:56Z</time>
      </trkpt>
      <trkpt lat="49.04159" lon="1.85897">
        <ele>92</ele>
        <time>2023-01-10T08:36:26Z</time>
      </trkpt>
      <trkpt lat="49.04162" lon="1.85862">
        <ele>94</ele>
        <time>2023-01-10T08:36:57Z</time>
      </trkpt>
      <trkpt lat="49.04168" lon="1.85814">
        <ele>97</ele>
        <time>2023-01-10T08:37:39Z</time>
      </trkpt>
      <trkpt lat="49.04182" lon="1.8577">
        <ele>101</ele>
        <time>2023-01-10T08:38:22Z</time>
      </trkpt>
      <trkpt lat="49.04192" lon="1.85756">
        <ele>102</ele>
        <time>2023-01-10T08:38:40Z</time>
      </trkpt>
      <trkpt lat="49.04211" lon="1.85744">
        <ele>103</ele>
        <time>2023-01-10T08:39:08Z</time>
      </trkpt>
      <trkpt lat="49.0423" lon="1.85731">
        <ele>105</ele>
        <time>2023-01-10T08:39:36Z</time>
      </trkpt>
      <trkpt lat="49.04249" lon="1.85718">
        <ele>106</ele>
        <time>2023-01-10T08:40:03Z</time>
      </trkpt>
      <trkpt lat="49.04268" lon="1.85705">
        <ele>106</ele>
        <time>2023-01-10T08:40:31Z</time>
      </trkpt>
      <trkpt lat="49.04283" lon="1.85697">
        <ele>106</ele>
        <time>2023-01-10T08:40:52Z</time>
      </trkpt>
      <trkpt lat="49.04272" lon="1.85669">
        <ele>108</ele>
        <time>2023-01-10T08:41:21Z</time>
      </trkpt>
      <trkpt lat="49.04237" lon="1.8555">
        <ele>115</ele>
        <time>2023-01-10T08:43:15Z</time>
      </trkpt>
      <trkpt lat="49.04252" lon="1.85519">
        <ele>117</ele>
        <time>2023-01-10T08:43:49Z</time>
      </trkpt>
      <trkpt lat="49.04266" lon="1.85467">
        <ele>118</ele>
        <time>2023-01-10T08:44:38Z</time>
      </trkpt>
      <trkpt lat="49.04276" lon="1.85399">
        <ele>117</ele>
        <time>2023-01-10T08:45:39Z</time>
      </trkpt>
      <trkpt lat="49.04282" lon="1.85332">
        <ele>117</ele>
        <time>2023-01-10T08:46:38Z</time>
      </trkpt>
      <trkpt lat="49.04292" lon="1.85258">
        <ele>117</ele>
        <time>2023-01-10T08:47:44Z</time>
      </trkpt>
      <trkpt lat="49.04315" lon="1.8519">
        <ele>122</ele>
        <time>2023-01-10T08:48:51Z</time>
      </trkpt>
      <trkpt lat="49.04346" lon="1.85167">
        <ele>123</ele>
        <time>2023-01-10T08:49:37Z</time>
      </trkpt>
      <trkpt lat="49.04391" lon="1.85153">
        <ele>122</ele>
        <time>2023-01-10T08:50:38Z</time>
      </trkpt>
      <trkpt lat="49.04435" lon="1.8514">
        <ele>122</ele>
        <time>2023-01-10T08:51:38Z</time>
      </trkpt>
      <trkpt lat="49.04524" lon="1.85119">
        <ele>124</ele>
        <time>2023-01-10T08:53:38Z</time>
      </trkpt>
      <trkpt lat="49.0453" lon="1.85153">
        <ele>124</ele>
        <time>2023-01-10T08:54:09Z</time>
      </trkpt>
      <trkpt lat="49.04539" lon="1.8515">
        <ele>125</ele>
        <time>2023-01-10T08:54:21Z</time>
      </trkpt>
      <trkpt lat="49.04548" lon="1.85139">
        <ele>125</ele>
        <time>2023-01-10T08:54:37Z</time>
      </trkpt>
      <trkpt lat="49.04586" lon="1.85151">
        <ele>126</ele>
        <time>2023-01-10T08:55:29Z</time>
      </trkpt>
      <trkpt lat="49.04598" lon="1.85165">
        <ele>126</ele>
        <time>2023-01-10T08:55:49Z</time>
      </trkpt>
      <trkpt lat="49.04606" lon="1.85197">
        <ele>125</ele>
        <time>2023-01-10T08:56:19Z</time>
      </trkpt>
      <trkpt lat="49.04623" lon="1.85194">
        <ele>125</ele>
        <time>2023-01-10T08:56:41Z</time>
      </trkpt>
      <trkpt lat="49.0463" lon="1.85188">
        <ele>126</ele>
        <time>2023-01-10T08:56:52Z</time>
      </trkpt>
      <trkpt lat="49.04638" lon="1.85187">
        <ele>126</ele>
        <time>2023-01-10T08:57:03Z</time>
      </trkpt>
      <trkpt lat="49.04641" lon="1.85165">
        <ele>126</ele>
        <time>2023-01-10T08:57:23Z</time>
      </trkpt>
      <trkpt lat="49.04643" lon="1.85151">
        <ele>126</ele>
        <time>2023-01-10T08:57:35Z</time>
      </trkpt>
      <trkpt lat="49.04641" lon="1.85141">
        <ele>126</ele>
        <time>2023-01-10T08:57:44Z</time>
      </trkpt>
      <trkpt lat="49.04644" lon="1.85133">
        <ele>125</ele>
        <time>2023-01-10T08:57:52Z</time>
      </trkpt>
      <trkpt lat="49.0467" lon="1.85108">
        <ele>125</ele>
        <time>2023-01-10T08:58:33Z</time>
      </trkpt>
      <trkpt lat="49.04686" lon="1.85087">
        <ele>126</ele>
        <time>2023-01-10T08:59:01Z</time>
      </trkpt>
      <trkpt lat="49.04702" lon="1.85042">
        <ele>128</ele>
        <time>2023-01-10T08:59:46Z</time>
      </trkpt>
      <trkpt lat="49.04723" lon="1.84985">
        <ele>132</ele>
        <time>2023-01-10T09:00:43Z</time>
      </trkpt>
      <trkpt lat="49.0472" lon="1.84971">
        <ele>132</ele>
        <time>2023-01-10T09:00:56Z</time>
      </trkpt>
      <trkpt lat="49.04703" lon="1.84912">
        <ele>133</ele>
        <time>2023-01-10T09:01:53Z</time>
      </trkpt>
      <trkpt lat="49.04695" lon="1.84885">
        <ele>133</ele>
        <time>2023-01-10T09:02:19Z</time>
      </trkpt>
      <trkpt lat="49.04701" lon="1.84852">
        <ele>134</ele>
        <time>2023-01-10T09:02:49Z</time>
      </trkpt>
      <trkpt lat="49.04736" lon="1.84806">
        <ele>140</ele>
        <time>2023-01-10T09:03:50Z</time>
      </trkpt>
      <trkpt lat="49.04746" lon="1.84781">
        <ele>142</ele>
        <time>2023-01-10T09:04:16Z</time>
      </trkpt>
      <trkpt lat="49.04761" lon="1.84743">
        <ele>145</ele>
        <time>2023-01-10T09:04:55Z</time>
      </trkpt>
      <trkpt lat="49.04748" lon="1.84621">
        <ele>149</ele>
        <time>2023-01-10T09:06:43Z</time>
      </trkpt>
      <trkpt lat="49.04722" lon="1.84431">
        <ele>150</ele>
        <time>2023-01-10T09:09:32Z</time>
      </trkpt>
      <trkpt lat="49.04701" lon="1.84303">
        <ele>148</ele>
        <time>2023-01-10T09:11:28Z</time>
      </trkpt>
      <trkpt lat="49.04704" lon="1.8423">
        <ele>150</ele>
        <time>2023-01-10T09:12:32Z</time>
      </trkpt>
      <trkpt lat="49.04702" lon="1.84176">
        <ele>151</ele>
        <time>2023-01-10T09:13:19Z</time>
      </trkpt>
      <trkpt lat="49.04694" lon="1.84112">
        <ele>150</ele>
        <time>2023-01-10T09:14:16Z</time>
      </trkpt>
      <trkpt lat="49.04692" lon="1.84047">
        <ele>150</ele>
        <time>2023-01-10T09:15:13Z</time>
      </trkpt>
      <trkpt lat="49.0471" lon="1.84042">
        <ele>153</ele>
        <time>2023-01-10T09:15:38Z</time>
      </trkpt>
      <trkpt lat="49.04768" lon="1.83982">
        <ele>162</ele>
        <time>2023-01-10T09:17:11Z</time>
      </trkpt>
      <trkpt lat="49.04784" lon="1.83953">
        <ele>163</ele>
        <time>2023-01-10T09:17:44Z</time>
      </trkpt>
      <trkpt lat="49.04818" lon="1.839">
        <ele>165</ele>
        <time>2023-01-10T09:18:49Z</time>
      </trkpt>
      <trkpt lat="49.04859" lon="1.83836">
        <ele>165</ele>
        <time>2023-01-10T09:20:07Z</time>
      </trkpt>
      <trkpt lat="49.04939" lon="1.83713">
        <ele>156</ele>
        <time>2023-01-10T09:22:39Z</time>
      </trkpt>
      <trkpt lat="49.04972" lon="1.83661">
        <ele>150</ele>
        <time>2023-01-10T09:23:42Z</time>
      </trkpt>
      <trkpt lat="49.04977" lon="1.83654">
        <ele>150</ele>
        <time>2023-01-10T09:23:51Z</time>
      </trkpt>
      <trkpt lat="49.04954" lon="1.83626">
        <ele>147</ele>
        <time>2023-01-10T09:24:31Z</time>
      </trkpt>
      <trkpt lat="49.04929" lon="1.83596">
        <ele>143</ele>
        <time>2023-01-10T09:25:13Z</time>
      </trkpt>
      <trkpt lat="49.0491" lon="1.83566">
        <ele>139</ele>
        <time>2023-01-10T09:25:49Z</time>
      </trkpt>
      <trkpt lat="49.04902" lon="1.83552">
        <ele>137</ele>
        <time>2023-01-10T09:26:06Z</time>
      </trkpt>
      <trkpt lat="49.04886" lon="1.83513">
        <ele>132</ele>
        <time>2023-01-10T09:26:46Z</time>
      </trkpt>
      <trkpt lat="49.04859" lon="1.83405">
        <ele>124</ele>
        <time>2023-01-10T09:28:27Z</time>
      </trkpt>
      <trkpt lat="49.04812" lon="1.83213">
        <ele>117</ele>
        <time>2023-01-10T09:31:26Z</time>
      </trkpt>
      <trkpt lat="49.04809" lon="1.83189">
        <ele>117</ele>
        <time>2023-01-10T09:31:48Z</time>
      </trkpt>
      <trkpt lat="49.04804" lon="1.83115">
        <ele>113</ele>
        <time>2023-01-10T09:32:53Z</time>
      </trkpt>
      <trkpt lat="49.04801" lon="1.83079">
        <ele>111</ele>
        <time>2023-01-10T09:33:24Z</time>
      </trkpt>
      <trkpt lat="49.048" lon="1.8304">
        <ele>109</ele>
        <time>2023-01-10T09:33:59Z</time>
      </trkpt>
      <trkpt lat="49.048" lon="1.82986">
        <ele>106</ele>
        <time>2023-01-10T09:34:46Z</time>
      </trkpt>
      <trkpt lat="49.04795" lon="1.82945">
        <ele>104</ele>
        <time>2023-01-10T09:35:22Z</time>
      </trkpt>
      <trkpt lat="49.04773" lon="1.82842">
        <ele>98</ele>
        <time>2023-01-10T09:36:57Z</time>
      </trkpt>
      <trkpt lat="49.04753" lon="1.82749">
        <ele>92</ele>
        <time>2023-01-10T09:38:23Z</time>
      </trkpt>
      <trkpt lat="49.0474" lon="1.82684">
        <ele>87</ele>
        <time>2023-01-10T09:39:22Z</time>
      </trkpt>
      <trkpt lat="49.04717" lon="1.82674">
        <ele>87</ele>
        <time>2023-01-10T09:39:54Z</time>
      </trkpt>
      <trkpt lat="49.04703" lon="1.82666">
        <ele>87</ele>
        <time>2023-01-10T09:40:14Z</time>
      </trkpt>
      <trkpt lat="49.04678" lon="1.8266">
        <ele>87</ele>
        <time>2023-01-10T09:40:48Z</time>
      </trkpt>
      <trkpt lat="49.0465" lon="1.82644">
        <ele>85</ele>
        <time>2023-01-10T09:41:28Z</time>
      </trkpt>
      <trkpt lat="49.04664" lon="1.82625">
        <ele>84</ele>
        <time>2023-01-10T09:41:53Z</time>
      </trkpt>
      <trkpt lat="49.04681" lon="1.82617">
        <ele>84</ele>
        <time>2023-01-10T09:42:16Z</time>
      </trkpt>
      <trkpt lat="49.04722" lon="1.82605">
        <ele>85</ele>
        <time>2023-01-10T09:43:12Z</time>
      </trkpt>
      <trkpt lat="49.04779" lon="1.82607">
        <ele>86</ele>
        <time>2023-01-10T09:44:28Z</time>
      </trkpt>
      <trkpt lat="49.04793" lon="1.82564">
        <ele>87</ele>
        <time>2023-01-10T09:45:10Z</time>
      </trkpt>
      <trkpt lat="49.04853" lon="1.82566">
        <ele>88</ele>
        <time>2023-01-10T09:46:30Z</time>
      </trkpt>
      <trkpt lat="49.04901" lon="1.82569">
        <ele>87</ele>
        <time>2023-01-10T09:47:34Z</time>
      </trkpt>
      <trkpt lat="49.049" lon="1.82515">
        <ele>86</ele>
        <time>2023-01-10T09:48:22Z</time>
      </trkpt>
      <trkpt lat="49.04922" lon="1.82496">
        <ele>87</ele>
        <time>2023-01-10T09:48:55Z</time>
      </trkpt>
      <trkpt lat="49.04946" lon="1.82487">
        <ele>89</ele>
        <time>2023-01-10T09:49:28Z</time>
      </trkpt>
      <trkpt lat="49.04946" lon="1.82483">
        <ele>89</ele>
        <time>2023-01-10T09:49:32Z</time>
      </trkpt>
      <trkpt lat="49.04946" lon="1.82467">
        <ele>89</ele>
        <time>2023-01-10T09:49:46Z</time>
      </trkpt>
      <trkpt lat="49.04965" lon="1.82395">
        <ele>91</ele>
        <time>2023-01-10T09:50:54Z</time>
      </trkpt>
      <trkpt lat="49.04979" lon="1.82357">
        <ele>91</ele>
        <time>2023-01-10T09:51:32Z</time>
      </trkpt>
      <trkpt lat="49.04997" lon="1.82319">
        <ele>91</ele>
        <time>2023-01-10T09:52:13Z</time>
      </trkpt>
      <trkpt lat="49.05013" lon="1.82281">
        <ele>92</ele>
        <time>2023-01-10T09:52:52Z</time>
      </trkpt>
      <trkpt lat="49.05024" lon="1.82261">
        <ele>93</ele>
        <time>2023-01-10T09:53:15Z</time>
      </trkpt>
      <trkpt lat="49.05036" lon="1.82243">
        <ele>94</ele>
        <time>2023-01-10T09:53:38Z</time>
      </trkpt>
      <trkpt lat="49.05067" lon="1.82192">
        <ele>96</ele>
        <time>2023-01-10T09:54:38Z</time>
      </trkpt>
      <trkpt lat="49.05071" lon="1.82181">
        <ele>96</ele>
        <time>2023-01-10T09:54:49Z</time>
      </trkpt>
      <trkpt lat="49.05076" lon="1.82206">
        <ele>98</ele>
        <time>2023-01-10T09:55:12Z</time>
      </trkpt>
      <trkpt lat="49.05083" lon="1.82234">
        <ele>100</ele>
        <time>2023-01-10T09:55:39Z</time>
      </trkpt>
      <trkpt lat="49.05098" lon="1.82247">
        <ele>102</ele>
        <time>2023-01-10T09:56:02Z</time>
      </trkpt>
      <trkpt lat="49.05117" lon="1.82255">
        <ele>105</ele>
        <time>2023-01-10T09:56:28Z</time>
      </trkpt>
      <trkpt lat="49.05146" lon="1.82263">
        <ele>108</ele>
        <time>2023-01-10T09:57:07Z</time>
      </trkpt>
      <trkpt lat="49.0518" lon="1.82278">
        <ele>110</ele>
        <time>2023-01-10T09:57:54Z</time>
      </trkpt>
      <trkpt lat="49.05215" lon="1.82293">
        <ele>111</ele>
        <time>2023-01-10T09:58:43Z</time>
      </trkpt>
      <trkpt lat="49.05248" lon="1.82308">
        <ele>112</ele>
        <time>2023-01-10T09:59:29Z</time>
      </trkpt>
      <trkpt lat="49.05263" lon="1.82313">
        <ele>112</ele>
        <time>2023-01-10T09:59:49Z</time>
      </trkpt>
      <trkpt lat="49.0527" lon="1.8231">
        <ele>113</ele>
        <time>2023-01-10T09:59:59Z</time>
      </trkpt>
      <trkpt lat="49.05318" lon="1.8227">
        <ele>116</ele>
        <time>2023-01-10T10:01:12Z</time>
      </trkpt>
      <trkpt lat="49.05358" lon="1.82239">
        <ele>118</ele>
        <time>2023-01-10T10:02:12Z</time>
      </trkpt>
      <trkpt lat="49.05392" lon="1.8221">
        <ele>118</ele>
        <time>2023-01-10T10:03:04Z</time>
      </trkpt>
      <trkpt lat="49.05426" lon="1.82181">
        <ele>119</ele>
        <time>2023-01-10T10:03:56Z</time>
      </trkpt>
      <trkpt lat="49.05464" lon="1.82158">
        <ele>120</ele>
        <time>2023-01-10T10:04:50Z</time>
      </trkpt>
      <trkpt lat="49.05502" lon="1.82133">
        <ele>121</ele>
        <time>2023-01-10T10:05:46Z</time>
      </trkpt>
      <trkpt lat="49.05553" lon="1.82104">
        <ele>122</ele>
        <time>2023-01-10T10:06:58Z</time>
      </trkpt>
      <trkpt lat="49.05604" lon="1.82073">
        <ele>123</ele>
        <time>2023-01-10T10:08:12Z</time>
      </trkpt>
      <trkpt lat="49.05656" lon="1.8205">
        <ele>124</ele>
        <time>2023-01-10T10:09:24Z</time>
      </trkpt>
      <trkpt lat="49.05705" lon="1.8203">
        <ele>126</ele>
        <time>2023-01-10T10:10:31Z</time>
      </trkpt>
      <trkpt lat="49.05751" lon="1.8202">
        <ele>129</ele>
        <time>2023-01-10T10:11:33Z</time>
      </trkpt>
      <trkpt lat="49.05786" lon="1.82013">
        <ele>131</ele>
        <time>2023-01-10T10:12:21Z</time>
      </trkpt>
      <trkpt lat="49.0582" lon="1.82007">
        <ele>133</ele>
        <time>2023-01-10T10:13:06Z</time>
      </trkpt>
      <trkpt lat="49.05846" lon="1.82001">
        <ele>135</ele>
        <time>2023-01-10T10:13:41Z</time>
      </trkpt>
      <trkpt lat="49.05872" lon="1.81982">
        <ele>136</ele>
        <time>2023-01-10T10:14:20Z</time>
      </trkpt>
      <trkpt lat="49.05884" lon="1.81969">
        <ele>137</ele>
        <time>2023-01-10T10:14:39Z</time>
      </trkpt>
      <trkpt lat="49.05899" lon="1.81946">
        <ele>138</ele>
        <time>2023-01-10T10:15:08Z</time>
      </trkpt>
      <trkpt lat="49.05911" lon="1.81916">
        <ele>140</ele>
        <time>2023-01-10T10:15:39Z</time>
      </trkpt>
      <trkpt lat="49.05918" lon="1.81886">
        <ele>141</ele>
        <time>2023-01-10T10:16:06Z</time>
      </trkpt>
      <trkpt lat="49.05931" lon="1.81868">
        <ele>143</ele>
        <time>2023-01-10T10:16:30Z</time>
      </trkpt>
      <trkpt lat="49.0594" lon="1.81847">
        <ele>144</ele>
        <time>2023-01-10T10:16:52Z</time>
      </trkpt>
      <trkpt lat="49.05945" lon="1.81821">
        <ele>145</ele>
        <time>2023-01-10T10:17:15Z</time>
      </trkpt>
      <trkpt lat="49.05945" lon="1.81789">
        <ele>147</ele>
        <time>2023-01-10T10:17:43Z</time>
      </trkpt>
      <trkpt lat="49.05939" lon="1.81739">
        <ele>150</ele>
        <time>2023-01-10T10:18:28Z</time>
      </trkpt>
      <trkpt lat="49.05931" lon="1.81679">
        <ele>151</ele>
        <time>2023-01-10T10:19:21Z</time>
      </trkpt>
      <trkpt lat="49.05931" lon="1.81637">
        <ele>150</ele>
        <time>2023-01-10T10:19:58Z</time>
      </trkpt>
      <trkpt lat="49.05934" lon="1.8161">
        <ele>150</ele>
        <time>2023-01-10T10:20:22Z</time>
      </trkpt>
      <trkpt lat="49.05945" lon="1.81583">
        <ele>150</ele>
        <time>2023-01-10T10:20:50Z</time>
      </trkpt>
      <trkpt lat="49.05921" lon="1.81499">
        <ele>144</ele>
        <time>2023-01-10T10:22:10Z</time>
      </trkpt>
      <trkpt lat="49.05912" lon="1.81416">
        <ele>140</ele>
        <time>2023-01-10T10:23:24Z</time>
      </trkpt>
      <trkpt lat="49.05904" lon="1.81365">
        <ele>137</ele>
        <time>2023-01-10T10:24:09Z</time>
      </trkpt>
      <trkpt lat="49.0592" lon="1.81299">
        <ele>134</ele>
        <time>2023-01-10T10:25:11Z</time>
      </trkpt>
      <trkpt lat="49.05936" lon="1.81218">
        <ele>129</ele>
        <time>2023-01-10T10:26:25Z</time>
      </trkpt>
      <trkpt lat="49.05949" lon="1.81136">
        <ele>127</ele>
        <time>2023-01-10T10:27:39Z</time>
      </trkpt>
      <trkpt lat="49.05956" lon="1.81094">
        <ele>126</ele>
        <time>2023-01-10T10:28:17Z</time>
      </trkpt>
      <trkpt lat="49.05957" lon="1.81074">
        <ele>126</ele>
        <time>2023-01-10T10:28:34Z</time>
      </trkpt>
      <trkpt lat="49.05948" lon="1.81023">
        <ele>128</ele>
        <time>2023-01-10T10:29:20Z</time>
      </trkpt>
      <trkpt lat="49.05938" lon="1.80955">
        <ele>133</ele>
        <time>2023-01-10T10:30:21Z</time>
      </trkpt>
      <trkpt lat="49.0594" lon="1.80912">
        <ele>137</ele>
        <time>2023-01-10T10:30:59Z</time>
      </trkpt>
      <trkpt lat="49.05929" lon="1.80841">
        <ele>147</ele>
        <time>2023-01-10T10:32:03Z</time>
      </trkpt>
      <trkpt lat="49.05921" lon="1.8078">
        <ele>154</ele>
        <time>2023-01-10T10:32:57Z</time>
      </trkpt>
      <trkpt lat="49.05917" lon="1.80699">
        <ele>159</ele>
        <time>2023-01-10T10:34:08Z</time>
      </trkpt>
      <trkpt lat="49.05915" lon="1.80662">
        <ele>159</ele>
        <time>2023-01-10T10:34:41Z</time>
      </trkpt>
      <trkpt lat="49.05906" lon="1.80581">
        <ele>160</ele>
        <time>2023-01-10T10:35:53Z</time>
      </trkpt>
      <trkpt lat="49.05909" lon="1.80503">
        <ele>165</ele>
        <time>2023-01-10T10:37:01Z</time>
      </trkpt>
      <trkpt lat="49.05914" lon="1.80411">
        <ele>174</ele>
        <time>2023-01-10T10:38:22Z</time>
      </trkpt>
      <trkpt lat="49.05913" lon="1.80397">
        <ele>175</ele>
        <time>2023-01-10T10:38:34Z</time>
      </trkpt>
      <trkpt lat="49.06059" lon="1.80336">
        <ele>176</ele>
        <time>2023-01-10T10:41:56Z</time>
      </trkpt>
      <trkpt lat="49.06154" lon="1.8034">
        <ele>175</ele>
        <time>2023-01-10T10:44:03Z</time>
      </trkpt>
      <trkpt lat="49.06191" lon="1.80333">
        <ele>175</ele>
        <time>2023-01-10T10:44:53Z</time>
      </trkpt>
      <trkpt lat="49.06228" lon="1.8037">
        <ele>171</ele>
        <time>2023-01-10T10:45:52Z</time>
      </trkpt>
      <trkpt lat="49.06315" lon="1.80426">
        <ele>170</ele>
        <time>2023-01-10T10:47:58Z</time>
      </trkpt>
      <trkpt lat="49.06371" lon="1.80448">
        <ele>171</ele>
        <time>2023-01-10T10:49:15Z</time>
      </trkpt>
      <trkpt lat="49.06405" lon="1.80463">
        <ele>171</ele>
        <time>2023-01-10T10:50:02Z</time>
      </trkpt>
      <trkpt lat="49.06479" lon="1.80438">
        <ele>175</ele>
        <time>2023-01-10T10:51:43Z</time>
      </trkpt>
      <trkpt lat="49.0656" lon="1.80466">
        <ele>177</ele>
        <time>2023-01-10T10:53:34Z</time>
      </trkpt>
      <trkpt lat="49.06575" lon="1.8049">
        <ele>177</ele>
        <time>2023-01-10T10:54:03Z</time>
      </trkpt>
      <trkpt lat="49.06577" lon="1.80567">
        <ele>178</ele>
        <time>2023-01-10T10:55:10Z</time>
      </trkpt>
      <trkpt lat="49.06583" lon="1.80625">
        <ele>175</ele>
        <time>2023-01-10T10:56:02Z</time>
      </trkpt>
      <trkpt lat="49.06608" lon="1.80706">
        <ele>173</ele>
        <time>2023-01-10T10:57:20Z</time>
      </trkpt>
      <trkpt lat="49.06625" lon="1.80775">
        <ele>172</ele>
        <time>2023-01-10T10:58:24Z</time>
      </trkpt>
      <trkpt lat="49.06631" lon="1.80886">
        <ele>171</ele>
        <time>2023-01-10T11:00:02Z</time>
      </trkpt>
      <trkpt lat="49.06665" lon="1.80827">
        <ele>175</ele>
        <time>2023-01-10T11:01:10Z</time>
      </trkpt>
      <trkpt lat="49.06704" lon="1.80747">
        <ele>184</ele>
        <time>2023-01-10T11:02:38Z</time>
      </trkpt>
      <trkpt lat="49.06734" lon="1.80693">
        <ele>190</ele>
        <time>2023-01-10T11:03:40Z</time>
      </trkpt>
      <trkpt lat="49.06773" lon="1.80671">
        <ele>194</ele>
        <time>2023-01-10T11:04:35Z</time>
      </trkpt>
      <trkpt lat="49.0678" lon="1.80655">
        <ele>196</ele>
        <time>2023-01-10T11:04:52Z</time>
      </trkpt>
      <trkpt lat="49.0678" lon="1.80633">
        <ele>197</ele>
        <time>2023-01-10T11:05:11Z</time>
      </trkpt>
      <trkpt lat="49.0677" lon="1.80557">
        <ele>199</ele>
        <time>2023-01-10T11:06:19Z</time>
      </trkpt>
      <trkpt lat="49.06741" lon="1.80398">
        <ele>201</ele>
        <time>2023-01-10T11:08:43Z</time>
      </trkpt>
      <trkpt lat="49.06714" lon="1.80224">
        <ele>204</ele>
        <time>2023-01-10T11:11:19Z</time>
      </trkpt>
      <trkpt lat="49.06683" lon="1.80009">
        <ele>200</ele>
        <time>2023-01-10T11:14:32Z</time>
      </trkpt>
      <trkpt lat="49.06672" lon="1.79971">
        <ele>199</ele>
        <time>2023-01-10T11:15:08Z</time>
      </trkpt>
      <trkpt lat="49.06669" lon="1.79894">
        <ele>198</ele>
        <time>2023-01-10T11:16:16Z</time>
      </trkpt>
      <trkpt lat="49.06669" lon="1.79833">
        <ele>199</ele>
        <time>2023-01-10T11:17:09Z</time>
      </trkpt>
      <trkpt lat="49.06656" lon="1.79787">
        <ele>198</ele>
        <time>2023-01-10T11:17:53Z</time>
      </trkpt>
      <trkpt lat="49.0664" lon="1.79722">
        <ele>195</ele>
        <time>2023-01-10T11:18:54Z</time>
      </trkpt>
      <trkpt lat="49.06622" lon="1.79647">
        <ele>189</ele>
        <time>2023-01-10T11:20:03Z</time>
      </trkpt>
      <trkpt lat="49.06595" lon="1.79605">
        <ele>184</ele>
        <time>2023-01-10T11:20:55Z</time>
      </trkpt>
      <trkpt lat="49.06564" lon="1.79567">
        <ele>179</ele>
        <time>2023-01-10T11:21:48Z</time>
      </trkpt>
      <trkpt lat="49.06518" lon="1.79483">
        <ele>169</ele>
        <time>2023-01-10T11:23:24Z</time>
      </trkpt>
      <trkpt lat="49.06508" lon="1.79466">
        <ele>167</ele>
        <time>2023-01-10T11:23:44Z</time>
      </trkpt>
      <trkpt lat="49.06506" lon="1.79454">
        <ele>167</ele>
        <time>2023-01-10T11:23:54Z</time>
      </trkpt>
      <trkpt lat="49.06509" lon="1.79417">
        <ele>164</ele>
        <time>2023-01-10T11:24:27Z</time>
      </trkpt>
      <trkpt lat="49.06563" lon="1.7939">
        <ele>162</ele>
        <time>2023-01-10T11:25:43Z</time>
      </trkpt>
      <trkpt lat="49.06585" lon="1.79313">
        <ele>155</ele>
        <time>2023-01-10T11:26:56Z</time>
      </trkpt>
      <trkpt lat="49.06613" lon="1.79236">
        <ele>154</ele>
        <time>2023-01-10T11:28:13Z</time>
      </trkpt>
      <trkpt lat="49.06606" lon="1.79148">
        <ele>148</ele>
        <time>2023-01-10T11:29:31Z</time>
      </trkpt>
      <trkpt lat="49.06587" lon="1.79079">
        <ele>144</ele>
        <time>2023-01-10T11:30:36Z</time>
      </trkpt>
      <trkpt lat="49.06552" lon="1.79013">
        <ele>138</ele>
        <time>2023-01-10T11:31:50Z</time>
      </trkpt>
      <trkpt lat="49.06543" lon="1.78871">
        <ele>132</ele>
        <time>2023-01-10T11:33:55Z</time>
      </trkpt>
      <trkpt lat="49.06511" lon="1.78734">
        <ele>127</ele>
        <time>2023-01-10T11:36:02Z</time>
      </trkpt>
      <trkpt lat="49.06471" lon="1.78601">
        <ele>119</ele>
        <time>2023-01-10T11:38:10Z</time>
      </trkpt>
      <trkpt lat="49.06442" lon="1.78442">
        <ele>128</ele>
        <time>2023-01-10T11:40:35Z</time>
      </trkpt>
      <trkpt lat="49.06408" lon="1.78294">
        <ele>137</ele>
        <time>2023-01-10T11:42:52Z</time>
      </trkpt>
      <trkpt lat="49.06352" lon="1.78135">
        <ele>141</ele>
        <time>2023-01-10T11:45:30Z</time>
      </trkpt>
      <trkpt lat="49.06291" lon="1.78002">
        <ele>141</ele>
        <time>2023-01-10T11:47:52Z</time>
      </trkpt>
      <trkpt lat="49.0622" lon="1.77837">
        <ele>139</ele>
        <time>2023-01-10T11:50:44Z</time>
      </trkpt>
      <trkpt lat="49.06038" lon="1.77914">
        <ele>135</ele>
        <time>2023-01-10T11:54:56Z</time>
      </trkpt>
      <trkpt lat="49.05851" lon="1.78011">
        <ele>129</ele>
        <time>2023-01-10T11:59:20Z</time>
      </trkpt>
      <trkpt lat="49.05766" lon="1.77971">
        <ele>126</ele>
        <time>2023-01-10T12:01:18Z</time>
      </trkpt>
      <trkpt lat="49.05666" lon="1.77964">
        <ele>129</ele>
        <time>2023-01-10T12:03:32Z</time>
      </trkpt>
      <trkpt lat="49.05614" lon="1.77957">
        <ele>132</ele>
        <time>2023-01-10T12:04:42Z</time>
      </trkpt>
      <trkpt lat="49.05451" lon="1.77791">
        <ele>142</ele>
        <time>2023-01-10T12:09:03Z</time>
      </trkpt>
      <trkpt lat="49.05461" lon="1.77694">
        <ele>142</ele>
        <time>2023-01-10T12:10:29Z</time>
      </trkpt>
      <trkpt lat="49.05241" lon="1.7743">
        <ele>139</ele>
        <time>2023-01-10T12:16:43Z</time>
      </trkpt>
      <trkpt lat="49.05153" lon="1.77607">
        <ele>138</ele>
        <time>2023-01-10T12:19:57Z</time>
      </trkpt>
      <trkpt lat="49.05089" lon="1.77862">
        <ele>136</ele>
        <time>2023-01-10T12:23:56Z</time>
      </trkpt>
      <trkpt lat="49.04945" lon="1.78282">
        <ele>145</ele>
        <time>2023-01-10T12:30:50Z</time>
      </trkpt>
      <trkpt lat="49.04805" lon="1.78697">
        <ele>136</ele>
        <time>2023-01-10T12:37:38Z</time>
      </trkpt>
      <trkpt lat="49.04607" lon="1.7891">
        <ele>122</ele>
        <time>2023-01-10T12:43:02Z</time>
      </trkpt>
      <trkpt lat="49.04545" lon="1.78946">
        <ele>118</ele>
        <time>2023-01-10T12:44:30Z</time>
      </trkpt>
      <trkpt lat="49.04491" lon="1.78928">
        <ele>115</ele>
        <time>2023-01-10T12:45:44Z</time>
      </trkpt>
      <trkpt lat="49.04432" lon="1.78856">
        <ele>118</ele>
        <time>2023-01-10T12:47:25Z</time>
      </trkpt>
      <trkpt lat="49.04276" lon="1.78863">
        <ele>123</ele>
        <time>2023-01-10T12:50:53Z</time>
      </trkpt>
      <trkpt lat="49.04067" lon="1.78961">
        <ele>128</ele>
        <time>2023-01-10T12:55:45Z</time>
      </trkpt>
      <trkpt lat="49.04075" lon="1.79009">
        <ele>128</ele>
        <time>2023-01-10T12:56:28Z</time>
      </trkpt>
      <trkpt lat="49.04087" lon="1.79086">
        <ele>127</ele>
        <time>2023-01-10T12:57:38Z</time>
      </trkpt>
      <trkpt lat="49.04102" lon="1.79172">
        <ele>126</ele>
        <time>2023-01-10T12:58:55Z</time>
      </trkpt>
      <trkpt lat="49.04104" lon="1.79232">
        <ele>127</ele>
        <time>2023-01-10T12:59:48Z</time>
      </trkpt>
      <trkpt lat="49.04096" lon="1.79279">
        <ele>127</ele>
        <time>2023-01-10T13:00:30Z</time>
      </trkpt>
      <trkpt lat="49.04069" lon="1.79366">
        <ele>124</ele>
        <time>2023-01-10T13:01:55Z</time>
      </trkpt>
      <trkpt lat="49.04027" lon="1.79485">
        <ele>119</ele>
        <time>2023-01-10T13:03:53Z</time>
      </trkpt>
      <trkpt lat="49.03996" lon="1.79574">
        <ele>117</ele>
        <time>2023-01-10T13:05:21Z</time>
      </trkpt>
      <trkpt lat="49.03971" lon="1.79621">
        <ele>115</ele>
        <time>2023-01-10T13:06:14Z</time>
      </trkpt>
      <trkpt lat="49.03962" lon="1.79681">
        <ele>113</ele>
        <time>2023-01-10T13:07:08Z</time>
      </trkpt>
      <trkpt lat="49.03947" lon="1.7973">
        <ele>109</ele>
        <time>2023-01-10T13:07:55Z</time>
      </trkpt>
      <trkpt lat="49.03919" lon="1.79797">
        <ele>106</ele>
        <time>2023-01-10T13:09:05Z</time>
      </trkpt>
      <trkpt lat="49.03911" lon="1.79856">
        <ele>105</ele>
        <time>2023-01-10T13:09:57Z</time>
      </trkpt>
      <trkpt lat="49.03918" lon="1.7988">
        <ele>104</ele>
        <time>2023-01-10T13:10:20Z</time>
      </trkpt>
      <trkpt lat="49.03959" lon="1.79919">
        <ele>97</ele>
        <time>2023-01-10T13:11:25Z</time>
      </trkpt>
      <trkpt lat="49.03968" lon="1.79971">
        <ele>94</ele>
        <time>2023-01-10T13:12:12Z</time>
      </trkpt>
      <trkpt lat="49.03977" lon="1.80023">
        <ele>92</ele>
        <time>2023-01-10T13:12:59Z</time>
      </trkpt>
      <trkpt lat="49.04021" lon="1.80035">
        <ele>89</ele>
        <time>2023-01-10T13:13:58Z</time>
      </trkpt>
      <trkpt lat="49.04068" lon="1.80059">
        <ele>89</ele>
        <time>2023-01-10T13:15:05Z</time>
      </trkpt>
      <trkpt lat="49.04117" lon="1.80096">
        <ele>92</ele>
        <time>2023-01-10T13:16:18Z</time>
      </trkpt>
      <trkpt lat="49.04149" lon="1.80124">
        <ele>96</ele>
        <time>2023-01-10T13:17:07Z</time>
      </trkpt>
      <trkpt lat="49.04157" lon="1.8015">
        <ele>97</ele>
        <time>2023-01-10T13:17:32Z</time>
      </trkpt>
      <trkpt lat="49.04157" lon="1.80215">
        <ele>100</ele>
        <time>2023-01-10T13:18:29Z</time>
      </trkpt>
      <trkpt lat="49.04182" lon="1.80217">
        <ele>104</ele>
        <time>2023-01-10T13:19:02Z</time>
      </trkpt>
      <trkpt lat="49.042" lon="1.80273">
        <ele>108</ele>
        <time>2023-01-10T13:19:57Z</time>
      </trkpt>
      <trkpt lat="49.04222" lon="1.80329">
        <ele>112</ele>
        <time>2023-01-10T13:20:54Z</time>
      </trkpt>
      <trkpt lat="49.04245" lon="1.8035">
        <ele>115</ele>
        <time>2023-01-10T13:21:30Z</time>
      </trkpt>
      <trkpt lat="49.04266" lon="1.80457">
        <ele>118</ele>
        <time>2023-01-10T13:23:07Z</time>
      </trkpt>
      <trkpt lat="49.04296" lon="1.80614">
        <ele>121</ele>
        <time>2023-01-10T13:25:30Z</time>
      </trkpt>
      <trkpt lat="49.04318" lon="1.80728">
        <ele>124</ele>
        <time>2023-01-10T13:27:14Z</time>
      </trkpt>
      <trkpt lat="49.04341" lon="1.80836">
        <ele>126</ele>
        <time>2023-01-10T13:28:54Z</time>
      </trkpt>
      <trkpt lat="49.04359" lon="1.80928">
        <ele>128</ele>
        <time>2023-01-10T13:30:18Z</time>
      </trkpt>
      <trkpt lat="49.0439" lon="1.81045">
        <ele>131</ele>
        <time>2023-01-10T13:32:08Z</time>
      </trkpt>
      <trkpt lat="49.04413" lon="1.81119">
        <ele>135</ele>
        <time>2023-01-10T13:33:20Z</time>
      </trkpt>
      <trkpt lat="49.0444" lon="1.81178">
        <ele>140</ele>
        <time>2023-01-10T13:34:23Z</time>
      </trkpt>
      <trkpt lat="49.04464" lon="1.81254">
        <ele>144</ele>
        <time>2023-01-10T13:35:36Z</time>
      </trkpt>
      <trkpt lat="49.04515" lon="1.81216">
        <ele>145</ele>
        <time>2023-01-10T13:36:52Z</time>
      </trkpt>
      <trkpt lat="49.04547" lon="1.81189">
        <ele>147</ele>
        <time>2023-01-10T13:37:41Z</time>
      </trkpt>
      <trkpt lat="49.04611" lon="1.81207">
        <ele>151</ele>
        <time>2023-01-10T13:39:08Z</time>
      </trkpt>
      <trkpt lat="49.04609" lon="1.81235">
        <ele>150</ele>
        <time>2023-01-10T13:39:32Z</time>
      </trkpt>
      <trkpt lat="49.0461" lon="1.81263">
        <ele>150</ele>
        <time>2023-01-10T13:39:57Z</time>
      </trkpt>
      <trkpt lat="49.04624" lon="1.81284">
        <ele>149</ele>
        <time>2023-01-10T13:40:23Z</time>
      </trkpt>
      <trkpt lat="49.04621" lon="1.81308">
        <ele>147</ele>
        <time>2023-01-10T13:40:45Z</time>
      </trkpt>
      <trkpt lat="49.04599" lon="1.81367">
        <ele>143</ele>
        <time>2023-01-10T13:41:44Z</time>
      </trkpt>
      <trkpt lat="49.04588" lon="1.81406">
        <ele>141</ele>
        <time>2023-01-10T13:42:21Z</time>
      </trkpt>
      <trkpt lat="49.04588" lon="1.81466">
        <ele>138</ele>
        <time>2023-01-10T13:43:14Z</time>
      </trkpt>
      <trkpt lat="49.04583" lon="1.8152">
        <ele>135</ele>
        <time>2023-01-10T13:44:01Z</time>
      </trkpt>
      <trkpt lat="49.04596" lon="1.8158">
        <ele>130</ele>
        <time>2023-01-10T13:44:57Z</time>
      </trkpt>
      <trkpt lat="49.04616" lon="1.81653">
        <ele>126</ele>
        <time>2023-01-10T13:46:06Z</time>
      </trkpt>
      <trkpt lat="49.0463" lon="1.81727">
        <ele>120</ele>
        <time>2023-01-10T13:47:13Z</time>
      </trkpt>
      <trkpt lat="49.04636" lon="1.81794">
        <ele>116</ele>
        <time>2023-01-10T13:48:12Z</time>
      </trkpt>
      <trkpt lat="49.0463" lon="1.81839">
        <ele>114</ele>
        <time>2023-01-10T13:48:52Z</time>
      </trkpt>
      <trkpt lat="49.04618" lon="1.819">
        <ele>113</ele>
        <time>2023-01-10T13:49:48Z</time>
      </trkpt>
      <trkpt lat="49.04604" lon="1.81971">
        <ele>111</ele>
        <time>2023-01-10T13:50:53Z</time>
      </trkpt>
      <trkpt lat="49.04592" lon="1.82048">
        <ele>108</ele>
        <time>2023-01-10T13:52:02Z</time>
      </trkpt>
      <trkpt lat="49.04583" lon="1.82082">
        <ele>107</ele>
        <time>2023-01-10T13:52:34Z</time>
      </trkpt>
      <trkpt lat="49.04593" lon="1.82132">
        <ele>105</ele>
        <time>2023-01-10T13:53:20Z</time>
      </trkpt>
      <trkpt lat="49.04597" lon="1.82171">
        <ele>104</ele>
        <time>2023-01-10T13:53:55Z</time>
      </trkpt>
      <trkpt lat="49.04583" lon="1.82208">
        <ele>101</ele>
        <time>2023-01-10T13:54:32Z</time>
      </trkpt>
      <trkpt lat="49.04584" lon="1.82246">
        <ele>97</ele>
        <time>2023-01-10T13:55:05Z</time>
      </trkpt>
      <trkpt lat="49.04609" lon="1.82333">
        <ele>91</ele>
        <time>2023-01-10T13:56:28Z</time>
      </trkpt>
      <trkpt lat="49.04503" lon="1.82371">
        <ele>89</ele>
        <time>2023-01-10T13:58:54Z</time>
      </trkpt>
      <trkpt lat="49.04423" lon="1.8239">
        <ele>88</ele>
        <time>2023-01-10T14:00:42Z</time>
      </trkpt>
      <trkpt lat="49.04289" lon="1.82422">
        <ele>88</ele>
        <time>2023-01-10T14:03:43Z</time>
      </trkpt>
      <trkpt lat="49.04117" lon="1.82482">
        <ele>84</ele>
        <time>2023-01-10T14:07:38Z</time>
      </trkpt>
      <trkpt lat="49.04055" lon="1.8251">
        <ele>83</ele>
        <time>2023-01-10T14:09:04Z</time>
      </trkpt>
      <trkpt lat="49.04022" lon="1.82583">
        <ele>83</ele>
        <time>2023-01-10T14:10:22Z</time>
      </trkpt>
      <trkpt lat="49.03961" lon="1.82796">
        <ele>78</ele>
        <time>2023-01-10T14:13:45Z</time>
      </trkpt>
      <trkpt lat="49.03911" lon="1.82955">
        <ele>75</ele>
        <time>2023-01-10T14:16:19Z</time>
      </trkpt>
      <trkpt lat="49.03902" lon="1.83053">
        <ele>72</ele>
        <time>2023-01-10T14:17:46Z</time>
      </trkpt>
      <trkpt lat="49.03882" lon="1.83089">
        <ele>72</ele>
        <time>2023-01-10T14:18:27Z</time>
      </trkpt>
      <trkpt lat="49.03843" lon="1.83204">
        <ele>71</ele>
        <time>2023-01-10T14:20:21Z</time>
      </trkpt>
      <trkpt lat="49.03836" lon="1.8324">
        <ele>72</ele>
        <time>2023-01-10T14:20:53Z</time>
      </trkpt>
      <trkpt lat="49.03838" lon="1.8327">
        <ele>72</ele>
        <time>2023-01-10T14:21:20Z</time>
      </trkpt>
      <trkpt lat="49.03855" lon="1.83283">
        <ele>72</ele>
        <time>2023-01-10T14:21:45Z</time>
      </trkpt>
      <trkpt lat="49.03852" lon="1.83314">
        <ele>72</ele>
        <time>2023-01-10T14:22:13Z</time>
      </trkpt>
      <trkpt lat="49.03851" lon="1.83365">
        <ele>71</ele>
        <time>2023-01-10T14:22:57Z</time>
      </trkpt>
      <trkpt lat="49.03837" lon="1.83362">
        <ele>71</ele>
        <time>2023-01-10T14:23:16Z</time>
      </trkpt>
      <trkpt lat="49.03803" lon="1.83342">
        <ele>73</ele>
        <time>2023-01-10T14:24:05Z</time>
      </trkpt>
      <trkpt lat="49.03782" lon="1.83349">
        <ele>74</ele>
        <time>2023-01-10T14:24:33Z</time>
      </trkpt>
      <trkpt lat="49.03748" lon="1.83355">
        <ele>76</ele>
        <time>2023-01-10T14:25:19Z</time>
      </trkpt>
      <trkpt lat="49.03717" lon="1.83379">
        <ele>80</ele>
        <time>2023-01-10T14:26:06Z</time>
      </trkpt>
      <trkpt lat="49.037" lon="1.83421">
        <ele>83</ele>
        <time>2023-01-10T14:26:49Z</time>
      </trkpt>
      <trkpt lat="49.03684" lon="1.8346">
        <ele>85</ele>
        <time>2023-01-10T14:27:29Z</time>
      </trkpt>
      <trkpt lat="49.03675" lon="1.83471">
        <ele>87</ele>
        <time>2023-01-10T14:27:44Z</time>
      </trkpt>
      <trkpt lat="49.03657" lon="1.83477">
        <ele>90</ele>
        <time>2023-01-10T14:28:09Z</time>
      </trkpt>
      <trkpt lat="49.03618" lon="1.83479">
        <ele>95</ele>
        <time>2023-01-10T14:29:01Z</time>
      </trkpt>
      <trkpt lat="49.03602" lon="1.83535">
        <ele>97</ele>
        <time>2023-01-10T14:29:54Z</time>
      </trkpt>
      <trkpt lat="49.03574" lon="1.83585">
        <ele>101</ele>
        <time>2023-01-10T14:30:52Z</time>
      </trkpt>
      <trkpt lat="49.03558" lon="1.83609">
        <ele>101</ele>
        <time>2023-01-10T14:31:22Z</time>
      </trkpt>
      <trkpt lat="49.03534" lon="1.83642">
        <ele>102</ele>
        <time>2023-01-10T14:32:05Z</time>
      </trkpt>
      <trkpt lat="49.03482" lon="1.83685">
        <ele>107</ele>
        <time>2023-01-10T14:33:24Z</time>
      </trkpt>
      <trkpt lat="49.03469" lon="1.83755">
        <ele>104</ele>
        <time>2023-01-10T14:34:28Z</time>
      </trkpt>
      <trkpt lat="49.03456" lon="1.83823">
        <ele>103</ele>
        <time>2023-01-10T14:35:30Z</time>
      </trkpt>
      <trkpt lat="49.03445" lon="1.83875">
        <ele>103</ele>
        <time>2023-01-10T14:36:17Z</time>
      </trkpt>
      <trkpt lat="49.03435" lon="1.83942">
        <ele>103</ele>
        <time>2023-01-10T14:37:17Z</time>
      </trkpt>
      <trkpt lat="49.03424" lon="1.84011">
        <ele>104</ele>
        <time>2023-01-10T14:38:20Z</time>
      </trkpt>
      <trkpt lat="49.03413" lon="1.8408">
        <ele>103</ele>
        <time>2023-01-10T14:39:22Z</time>
      </trkpt>
      <trkpt lat="49.03405" lon="1.84135">
        <ele>101</ele>
        <time>2023-01-10T14:40:11Z</time>
      </trkpt>
      <trkpt lat="49.03399" lon="1.84166">
        <ele>100</ele>
        <time>2023-01-10T14:40:39Z</time>
      </trkpt>
      <trkpt lat="49.03388" lon="1.84215">
        <ele>101</ele>
        <time>2023-01-10T14:41:25Z</time>
      </trkpt>
      <trkpt lat="49.03368" lon="1.84285">
        <ele>100</ele>
        <time>2023-01-10T14:42:31Z</time>
      </trkpt>
      <trkpt lat="49.03369" lon="1.84348">
        <ele>97</ele>
        <time>2023-01-10T14:43:27Z</time>
      </trkpt>
      <trkpt lat="49.03371" lon="1.84397">
        <ele>96</ele>
        <time>2023-01-10T14:44:10Z</time>
      </trkpt>
      <trkpt lat="49.03362" lon="1.84456">
        <ele>95</ele>
        <time>2023-01-10T14:45:03Z</time>
      </trkpt>
      <trkpt lat="49.03362" lon="1.84508">
        <ele>93</ele>
        <time>2023-01-10T14:45:48Z</time>
      </trkpt>
      <trkpt lat="49.03365" lon="1.84614">
        <ele>89</ele>
        <time>2023-01-10T14:47:21Z</time>
      </trkpt>
      <trkpt lat="49.03358" lon="1.84666">
        <ele>87</ele>
        <time>2023-01-10T14:48:07Z</time>
      </trkpt>
      <trkpt lat="49.03348" lon="1.84722">
        <ele>85</ele>
        <time>2023-01-10T14:48:58Z</time>
      </trkpt>
      <trkpt lat="49.03345" lon="1.84772">
        <ele>84</ele>
        <time>2023-01-10T14:49:42Z</time>
      </trkpt>
      <trkpt lat="49.03347" lon="1.84864">
        <ele>85</ele>
        <time>2023-01-10T14:51:03Z</time>
      </trkpt>
      <trkpt lat="49.03349" lon="1.84967">
        <ele>85</ele>
        <time>2023-01-10T14:52:33Z</time>
      </trkpt>
      <trkpt lat="49.03343" lon="1.85046">
        <ele>85</ele>
        <time>2023-01-10T14:53:42Z</time>
      </trkpt>
      <trkpt lat="49.03338" lon="1.85081">
        <ele>85</ele>
        <time>2023-01-10T14:54:14Z</time>
      </trkpt>
      <trkpt lat="49.03324" lon="1.85119">
        <ele>85</ele>
        <time>2023-01-10T14:54:52Z</time>
      </trkpt>
      <trkpt lat="49.03318" lon="1.85161">
        <ele>84</ele>
        <time>2023-01-10T14:55:29Z</time>
      </trkpt>
      <trkpt lat="49.0332" lon="1.85201">
        <ele>84</ele>
        <time>2023-01-10T14:56:04Z</time>
      </trkpt>
      <trkpt lat="49.03315" lon="1.8524">
        <ele>83</ele>
        <time>2023-01-10T14:56:39Z</time>
      </trkpt>
      <trkpt lat="49.03295" lon="1.85333">
        <ele>84</ele>
        <time>2023-01-10T14:58:05Z</time>
      </trkpt>
      <trkpt lat="49.03278" lon="1.85401">
        <ele>83</ele>
        <time>2023-01-10T14:59:09Z</time>
      </trkpt>
      <trkpt lat="49.03254" lon="1.85488">
        <ele>83</ele>
        <time>2023-01-10T15:00:31Z</time>
      </trkpt>
      <trkpt lat="49.0324" lon="1.85581">
        <ele>82</ele>
        <time>2023-01-10T15:01:55Z</time>
      </trkpt>
      <trkpt lat="49.03233" lon="1.85666">
        <ele>81</ele>
        <time>2023-01-10T15:03:10Z</time>
      </trkpt>
      <trkpt lat="49.03236" lon="1.85799">
        <ele>80</ele>
        <time>2023-01-10T15:05:06Z</time>
      </trkpt>
      <trkpt lat="49.03235" lon="1.85934">
        <ele>79</ele>
        <time>2023-01-10T15:07:04Z</time>
      </trkpt>
      <trkpt lat="49.03223" lon="1.86029">
        <ele>75</ele>
        <time>2023-01-10T15:08:29Z</time>
      </trkpt>
      <trkpt lat="49.03214" lon="1.86089">
        <ele>72</ele>
        <time>2023-01-10T15:09:23Z</time>
      </trkpt>
      <trkpt lat="49.03202" lon="1.86233">
        <ele>66</ele>
        <time>2023-01-10T15:11:30Z</time>
      </trkpt>
      <trkpt lat="49.03202" lon="1.86274">
        <ele>65</ele>
        <time>2023-01-10T15:12:05Z</time>
      </trkpt>
      <trkpt lat="49.03213" lon="1.86313">
        <ele>63</ele>
        <time>2023-01-10T15:12:43Z</time>
      </trkpt>
      <trkpt lat="49.03249" lon="1.86377">
        <ele>62</ele>
        <time>2023-01-10T15:13:56Z</time>
      </trkpt>
      <trkpt lat="49.03283" lon="1.86433">
        <ele>57</ele>
        <time>2023-01-10T15:15:03Z</time>
      </trkpt>
      <trkpt lat="49.03319" lon="1.86465">
        <ele>53</ele>
        <time>2023-01-10T15:15:59Z</time>
      </trkpt>
      <trkpt lat="49.03399" lon="1.86506">
        <ele>40</ele>
        <time>2023-01-10T15:17:51Z</time>
      </trkpt>
      <trkpt lat="49.0345" lon="1.86543">
        <ele>38</ele>
        <time>2023-01-10T15:19:07Z</time>
      </trkpt>
      <trkpt lat="49.03477" lon="1.86526">
        <ele>38</ele>
        <time>2023-01-10T15:19:46Z</time>
      </trkpt>
    </trkseg>
  </trk>
</gpx>